Time;durP1;ratioP1;P1;durP2;ratioP2;P2;SDS_P1;SDS_P2;PMS_P1;PMS_P2;Temp;Humidity;BMP_temperature;BMP_pressure;BME280_temperature;BME280_humidity;BME280_pressure;Samples;Min_cycle;Max_cycle;Signal;HPM_P1;HPM_P2
2022/03/12 00:02:50;;;;;;;;;;;;;;;-1.23;49.51;102204.84;713497;1175;116351;-69
2022/03/12 00:17:53;;;;;;;55.13;17.00;;;;;;;-1.31;48.90;102191.16;713599;1177;101600;-68
2022/03/12 00:32:56;;;;;;;91.73;25.40;;;;;;;-1.76;49.79;102188.05;713448;1177;116152;-70
2022/03/12 00:47:58;;;;;;;124.13;36.33;;;;;;;-1.72;50.51;102189.73;713567;1174;116143;-69
2022/03/12 01:03:01;;;;;;;179.40;47.48;;;;;;;-1.90;50.78;102188.12;713317;1174;116292;-69
2022/03/12 01:18:03;;;;;;;37.63;15.48;;;;;;;-1.77;51.05;102170.89;713790;1174;116389;-69
2022/03/12 01:33:06;;;;;;;46.08;17.75;;;;;;;-2.18;50.79;102160.84;713645;1174;116230;-70
2022/03/12 01:48:08;;;;;;;88.93;29.30;;;;;;;-2.43;52.36;102139.54;713228;1174;115344;-69
2022/03/12 02:03:11;;;;;;;90.00;31.90;;;;;;;-2.28;52.91;102133.45;713242;1174;116214;-69
2022/03/12 02:18:14;;;;;;;95.35;31.10;;;;;;;-2.52;53.49;102114.72;713052;1174;115886;-69
2022/03/12 02:33:26;;;;;;;89.70;34.28;;;;;;;-2.51;53.37;102118.13;713367;1175;115798;-69
2022/03/12 02:48:29;;;;;;;73.43;25.83;;;;;;;-2.62;53.24;102117.33;713775;1174;116021;-70
2022/03/12 03:03:34;;;;;;;106.43;33.53;;;;;;;-2.89;53.74;102125.13;713529;1174;115935;-69
2022/03/12 03:18:39;;;;;;;219.78;56.30;;;;;;;-3.06;53.98;102127.72;713972;1174;116377;-69
2022/03/12 03:33:41;;;;;;;229.78;64.30;;;;;;;-3.18;54.43;102126.03;713539;1177;116241;-69
2022/03/12 03:48:46;;;;;;;167.23;46.75;;;;;;;-3.15;54.87;102114.03;713097;1174;116017;-69
2022/03/12 04:03:49;;;;;;;139.30;40.23;;;;;;;-3.19;54.80;102113.20;713182;1174;115919;-71
2022/03/12 04:18:54;;;;;;;103.13;32.87;;;;;;;-3.29;54.98;102114.06;713491;1175;116599;-70
2022/03/12 04:33:57;;;;;;;56.40;20.90;;;;;;;-3.44;55.64;102109.80;713194;1174;116149;-70
2022/03/12 04:48:59;;;;;;;66.08;24.95;;;;;;;-3.39;54.73;102113.20;713512;1176;115742;-69
2022/03/12 05:04:01;;;;;;;111.23;31.53;;;;;;;-3.41;54.34;102120.06;713404;1175;116193;-70
2022/03/12 05:19:06;;;;;;;85.05;27.03;;;;;;;-3.36;55.12;102123.48;713502;1175;114849;-77
2022/03/12 05:34:08;;;;;;;;;;;;;;;-3.43;54.98;102116.63;714741;1177;115421;-77
2022/03/12 05:49:11;;;;;;;105.20;34.60;;;;;;;-3.29;55.13;102120.04;713899;1177;101874;-69
2022/03/12 06:04:22;;;;;;;173.87;52.73;;;;;;;-3.14;55.76;102119.19;713793;1175;116404;-72
2022/03/12 06:19:24;;;;;;;225.77;88.17;;;;;;;-2.56;55.67;102102.74;713807;1174;115980;-75
2022/03/12 06:34:27;;;;;;;231.65;80.30;;;;;;;-1.69;55.45;102091.91;713542;1174;116212;-76
2022/03/12 06:49:29;;;;;;;113.27;44.43;;;;;;;-0.29;55.12;102106.74;714269;1174;115889;-76
2022/03/12 07:04:32;;;;;;;253.50;88.35;;;;;;;1.45;54.25;102103.79;713940;1174;115439;-80
2022/03/12 07:19:34;;;;;;;245.03;93.50;;;;;;;3.11;53.40;102099.80;714383;1174;116269;-79
2022/03/12 07:34:36;;;;;;;64.70;29.43;;;;;;;4.07;51.08;102107.37;714154;1174;115321;-78
2022/03/12 07:49:38;;;;;;;52.20;23.20;;;;;;;4.84;48.67;102107.40;714050;1177;116134;-79
2022/03/12 08:04:40;;;;;;;30.07;14.80;;;;;;;5.58;46.20;102103.88;719856;1174;114870;-77
2022/03/12 08:19:44;;;;;;;45.18;16.73;;;;;;;6.10;45.40;102104.48;716425;1175;114824;-77
2022/03/12 08:34:47;;;;;;;27.38;11.08;;;;;;;6.35;43.26;102085.23;713994;1174;115143;-78
2022/03/12 08:49:48;;;;;;;24.07;12.50;;;;;;;7.02;42.22;102078.04;715965;1176;115888;-75
2022/03/12 09:04:52;;;;;;;22.93;10.57;;;;;;;8.12;41.96;102092.06;714752;1175;115849;-78
2022/03/12 09:19:54;;;;;;;30.00;11.90;;;;;;;8.49;40.03;102074.56;714380;1176;115437;-79
2022/03/12 09:34:56;;;;;;;78.05;35.70;;;;;;;8.96;40.62;102072.17;722053;1174;115128;-77
2022/03/12 09:49:58;;;;;;;23.45;10.28;;;;;;;9.79;39.09;102046.70;713990;1177;114610;-78
2022/03/12 10:05:01;;;;;;;25.17;9.97;;;;;;;10.51;38.45;102014.59;715825;1176;115345;-78
2022/03/12 10:20:05;;;;;;;16.28;8.20;;;;;;;10.60;36.68;102000.09;713405;1177;116055;-74
2022/03/12 10:35:09;;;;;;;13.90;6.10;;;;;;;10.90;36.71;102009.62;714363;1176;114289;-78
2022/03/12 10:50:15;;;;;;;18.60;9.10;;;;;;;12.19;35.83;102007.51;714061;1177;115502;-70
2022/03/12 11:05:20;;;;;;;18.80;7.98;;;;;;;12.56;35.15;101994.45;714039;1176;115628;-70
2022/03/12 11:20:23;;;;;;;38.60;14.73;;;;;;;12.45;34.35;101967.08;713727;1176;115755;-71
2022/03/12 11:35:28;;;;;;;10.10;5.88;;;;;;;12.52;33.29;101958.77;714350;1175;115564;-73
2022/03/12 11:50:31;;;;;;;27.45;11.30;;;;;;;14.06;32.95;101947.56;713882;1176;115850;-74
2022/03/12 12:05:34;;;;;;;19.05;7.93;;;;;;;14.81;33.42;101940.88;714061;1175;116138;-73
2022/03/12 12:20:39;;;;;;;20.23;8.20;;;;;;;15.14;32.75;101931.19;713907;1177;114460;-72
2022/03/12 12:35:44;;;;;;;30.93;11.63;;;;;;;15.27;32.61;101917.81;713828;1174;115715;-73
2022/03/12 12:51:11;;;;;;;17.20;7.75;;;;;;;15.46;32.24;101900.42;714250;1175;115257;-81
2022/03/12 13:06:39;;;;;;;26.33;12.45;;;;;;;16.28;31.45;101864.39;715290;1170;115064;-81
2022/03/12 13:22:00;;;;;;;10.93;6.43;;;;;;;16.63;30.89;101849.86;715202;1174;116004;-72
2022/03/12 13:37:03;;;;;;;17.03;9.20;;;;;;;15.90;30.69;101847.38;713676;1176;115936;-88
2022/03/12 13:52:14;;;;;;;15.00;8.15;;;;;;;23.87;29.77;101838.55;713687;1177;115944;-80
2022/03/12 14:07:18;;;;;;;107.25;60.58;;;;;;;29.25;28.03;101823.31;713755;1174;115181;-81
2022/03/12 14:22:23;;;;;;;12.13;7.63;;;;;;;30.57;26.71;101802.14;714496;1175;115476;-84
2022/03/12 14:37:26;;;;;;;12.35;7.28;;;;;;;32.64;27.11;101802.60;714748;1174;114387;-80
2022/03/12 14:52:31;;;;;;;10.63;7.08;;;;;;;31.86;26.60;101790.37;714525;1175;114851;-79
2022/03/12 15:07:54;;;;;;;11.80;6.75;;;;;;;33.31;26.12;101765.53;714593;1174;115212;-77
2022/03/12 15:23:13;;;;;;;117.93;68.87;;;;;;;31.07;25.84;101749.41;713222;1177;115416;-79
2022/03/12 15:38:19;;;;;;;20.55;13.35;;;;;;;20.31;27.78;101725.59;713749;1175;115790;-82
2022/03/12 15:53:24;;;;;;;87.13;44.60;;;;;;;17.46;29.54;101725.61;713972;1174;115146;-81
2022/03/12 16:08:28;;;;;;;203.25;89.35;;;;;;;19.61;29.65;101743.48;714335;1174;115898;-80
2022/03/12 16:23:33;;;;;;;40.53;18.25;;;;;;;21.22;28.88;101737.91;713306;1174;115927;-81
2022/03/12 16:38:35;;;;;;;473.90;160.95;;;;;;;15.04;30.15;101729.41;713287;1174;114620;-76
2022/03/12 16:53:38;;;;;;;293.30;108.08;;;;;;;11.66;31.97;101722.61;713072;1174;115374;-80
2022/03/12 17:08:41;;;;;;;315.28;97.93;;;;;;;9.61;34.53;101725.47;714127;1174;115391;-79
2022/03/12 17:23:45;;;;;;;63.85;24.43;;;;;;;8.42;35.16;101725.34;714852;1175;115720;-83
2022/03/12 17:38:49;;;;;;;495.63;173.63;;;;;;;7.45;36.83;101725.32;714993;1175;115010;-83
2022/03/12 17:53:53;;;;;;;123.75;48.30;;;;;;;6.80;38.40;101744.23;714712;1177;114645;-82
2022/03/12 18:08:59;;;;;;;418.05;205.00;;;;;;;6.22;38.41;101729.62;714065;1174;115412;-72
2022/03/12 18:24:04;;;;;;;196.73;79.13;;;;;;;5.69;39.45;101711.13;713801;1176;114665;-82
2022/03/12 18:39:11;;;;;;;116.33;42.27;;;;;;;5.15;41.45;101718.67;713923;1175;115422;-83
2022/03/12 18:54:15;;;;;;;205.83;73.23;;;;;;;4.68;41.50;101719.71;713450;1175;114973;-73
2022/03/12 19:09:18;;;;;;;93.97;32.90;;;;;;;4.61;42.52;101728.67;713663;1175;115715;-73
2022/03/12 19:24:22;;;;;;;182.87;49.40;;;;;;;4.16;43.60;101726.05;713419;1177;115964;-72
2022/03/12 19:39:24;;;;;;;144.63;47.30;;;;;;;4.00;43.90;101717.16;713668;1176;115440;-70
2022/03/12 19:54:26;;;;;;;145.75;51.70;;;;;;;3.74;44.98;101723.32;713832;1177;116039;-70
2022/03/12 20:09:29;;;;;;;171.67;51.87;;;;;;;3.42;45.10;101728.75;713345;1175;116101;-69
2022/03/12 20:24:31;;;;;;;137.90;44.35;;;;;;;3.00;45.52;101722.38;713999;1174;115741;-69
2022/03/12 20:39:34;;;;;;;103.88;34.08;;;;;;;2.71;46.05;101730.28;713138;1174;115994;-70
2022/03/12 20:54:37;;;;;;;183.93;58.33;;;;;;;2.52;46.66;101727.41;713493;1174;116026;-68
2022/03/12 21:09:39;;;;;;;147.55;48.15;;;;;;;2.24;47.02;101718.73;713257;1176;115387;-69
2022/03/12 21:24:42;;;;;;;249.43;70.70;;;;;;;1.88;47.71;101718.09;713077;1174;115699;-68
2022/03/12 21:39:45;;;;;;;225.20;68.43;;;;;;;1.79;48.25;101704.50;713066;1174;115990;-69
2022/03/12 21:54:48;;;;;;;225.05;61.93;;;;;;;1.56;48.57;101709.48;712994;1174;115690;-68
2022/03/12 22:09:51;;;;;;;162.03;47.25;;;;;;;1.31;49.07;101702.41;713202;1176;115806;-68
2022/03/12 22:24:53;;;;;;;85.28;27.55;;;;;;;1.09;49.64;101699.53;713022;1177;115870;-69
2022/03/12 22:39:57;;;;;;;102.55;31.63;;;;;;;0.86;49.33;101687.17;712923;1175;115732;-69
2022/03/12 22:55:00;;;;;;;126.68;40.00;;;;;;;0.65;50.59;101690.26;712927;1175;116154;-69
2022/03/12 23:10:03;;;;;;;93.20;31.77;;;;;;;0.62;50.01;101682.59;712972;1174;116062;-70
2022/03/12 23:25:07;;;;;;;108.63;33.97;;;;;;;0.42;50.45;101675.33;713073;1174;115801;-68
2022/03/12 23:40:11;;;;;;;88.30;29.43;;;;;;;0.16;51.03;101670.76;713025;1174;115748;-68
2022/03/12 23:55:15;;;;;;;114.55;35.75;;;;;;;0.03;52.15;101683.08;713135;1174;115815;-69
